createdAt,value
2019-01-11T00:04:22.810Z,54.70
2019-01-11T00:09:32.625Z,53.97
2019-01-11T00:14:39.198Z,47.57
2019-01-11T00:19:49.446Z,63.47
2019-01-11T00:24:59.913Z,53.77
2019-01-11T00:30:08.744Z,49.73
2019-01-11T00:35:16.705Z,58.53
2019-01-11T00:40:26.405Z,63.10
2019-01-11T00:45:37.150Z,58.47
2019-01-11T00:50:48.708Z,65.27
2019-01-11T00:55:59.397Z,68.27
2019-01-11T01:01:11.752Z,64.30
2019-01-11T01:06:22.353Z,65.37
2019-01-11T01:11:31.684Z,66.10
2019-01-11T01:16:46.182Z,69.33
2019-01-11T01:21:56.080Z,63.27
2019-01-11T01:27:05.023Z,66.30
2019-01-11T01:32:17.603Z,61.03
2019-01-11T01:37:30.789Z,65.47
2019-01-11T01:42:41.915Z,61.97
2019-01-11T01:47:52.041Z,59.17
2019-01-11T01:53:01.866Z,63.63
2019-01-11T01:58:10.848Z,54.13
2019-01-11T02:03:16.373Z,69.90
2019-01-11T02:08:22.976Z,65.63
2019-01-11T02:13:32.840Z,72.43
2019-01-11T02:18:41.398Z,71.43
2019-01-11T02:23:53.964Z,64.07
2019-01-11T02:29:04.775Z,57.17
2019-01-11T02:34:13.007Z,61.93
2019-01-11T02:39:20.298Z,59.03
2019-01-11T02:44:32.599Z,61.47
2019-01-11T02:49:40.526Z,59.90
2019-01-11T02:54:47.432Z,56.83
2019-01-11T02:59:59.746Z,56.87
2019-01-11T03:05:09.323Z,64.83
2019-01-11T03:10:29.091Z,57.50
2019-01-11T03:15:40.749Z,62.23
2019-01-11T03:20:54.243Z,57.93
2019-01-11T03:26:04.994Z,70.40
2019-01-11T03:31:26.349Z,72.50
2019-01-11T03:36:37.282Z,57.43
2019-01-11T03:42:18.374Z,74.07
2019-01-11T03:47:31.117Z,77.53
2019-01-11T03:52:41.061Z,80.90
2019-01-11T03:57:50.646Z,85.27
2019-01-11T04:03:02.345Z,91.53
2019-01-11T04:08:10.877Z,99.27
2019-01-11T04:13:22.383Z,99.00
2019-01-11T04:18:36.165Z,98.50
2019-01-11T04:23:42.994Z,90.10
2019-01-11T04:28:52.069Z,92.17
2019-01-11T04:34:00.295Z,132.53
2019-01-11T04:39:11.879Z,63.00
2019-01-11T04:44:21.989Z,79.80
2019-01-11T04:49:32.487Z,58.23
2019-01-11T04:54:41.487Z,65.57
2019-01-11T04:59:53.587Z,83.97
2019-01-11T05:07:16.517Z,79.77
2019-01-11T05:12:35.703Z,113.50
2019-01-11T05:17:45.575Z,113.23
2019-01-11T05:22:54.697Z,68.87
2019-01-11T05:28:05.269Z,114.83
2019-01-11T05:33:13.003Z,93.33
2019-01-11T05:38:19.730Z,94.10
2019-01-11T05:43:28.860Z,76.93
2019-01-11T05:48:40.579Z,99.67
2019-01-11T05:53:49.545Z,106.93
2019-01-11T05:59:12.651Z,135.87
2019-01-11T06:04:54.531Z,55.00
2019-01-11T06:10:03.596Z,67.67
2019-01-11T06:15:12.227Z,43.10
2019-01-11T06:20:20.083Z,51.97
2019-01-11T06:25:28.671Z,35.27
2019-01-11T06:30:38.744Z,45.97
2019-01-11T06:35:55.522Z,37.60
2019-01-11T06:41:03.940Z,54.47
2019-01-11T06:46:12.935Z,32.80
2019-01-11T06:51:24.549Z,33.93
2019-01-11T06:56:36.300Z,27.30
2019-01-11T07:01:45.155Z,29.67
2019-01-11T07:06:58.133Z,31.10
2019-01-11T07:12:09.635Z,26.73
2019-01-11T07:17:23.183Z,25.10
2019-01-11T07:22:33.666Z,30.57
2019-01-11T07:27:52.803Z,28.70
2019-01-11T07:33:07.011Z,28.93
2019-01-11T07:38:16.787Z,28.70
2019-01-11T07:43:26.530Z,31.53
2019-01-11T07:48:33.318Z,32.10
2019-01-11T07:53:40.713Z,43.00
2019-01-11T07:58:53.909Z,45.50
2019-01-11T08:04:05.381Z,50.20
2019-01-11T08:09:14.565Z,38.13
2019-01-11T08:14:25.187Z,32.83
2019-01-11T08:19:36.758Z,39.57
2019-01-11T08:24:48.675Z,38.50
2019-01-11T08:30:01.125Z,31.83
2019-01-11T08:35:11.237Z,32.47
2019-01-11T08:40:22.787Z,34.13
2019-01-11T08:45:33.381Z,50.90
2019-01-11T08:50:43.125Z,43.77
2019-01-11T08:55:55.654Z,44.97
2019-01-11T09:01:06.242Z,35.70
2019-01-11T09:06:13.320Z,30.03
2019-01-11T09:11:24.072Z,33.60
2019-01-11T09:16:38.542Z,35.13
2019-01-11T09:21:47.380Z,45.03
2019-01-11T09:26:57.578Z,35.57
2019-01-11T09:32:08.436Z,40.87
2019-01-11T09:37:16.200Z,30.53
2019-01-11T09:42:27.761Z,41.10
2019-01-11T09:47:38.497Z,35.03
2019-01-11T09:52:54.136Z,40.87
2019-01-11T09:58:05.521Z,34.10
2019-01-11T10:03:14.883Z,38.80
2019-01-11T10:08:27.280Z,26.37
2019-01-11T10:13:38.760Z,18.27
2019-01-11T10:18:47.638Z,17.50
2019-01-11T10:23:59.337Z,21.40
2019-01-11T10:29:08.373Z,13.63
2019-01-11T10:34:23.522Z,14.77
2019-01-11T10:39:34.124Z,14.00
2019-01-11T10:44:41.763Z,17.97
2019-01-11T10:49:51.285Z,13.17
2019-01-11T10:54:59.670Z,20.17
2019-01-11T11:00:09.411Z,10.20
2019-01-11T11:05:19.297Z,8.80
2019-01-11T11:10:34.114Z,8.20
2019-01-11T11:15:49.413Z,8.43
2019-01-11T11:21:04.624Z,11.17
2019-01-11T11:26:16.139Z,12.07
2019-01-11T11:31:24.075Z,9.33
2019-01-11T11:36:32.831Z,12.50
2019-01-11T11:41:42.958Z,12.50
2019-01-11T11:46:50.222Z,13.23
2019-01-11T11:51:59.278Z,14.93
2019-01-11T11:57:09.893Z,11.13
2019-01-11T12:02:21.795Z,12.17
2019-01-11T12:07:34.674Z,7.90
2019-01-11T12:12:43.129Z,12.80
2019-01-11T12:17:50.378Z,11.03
2019-01-11T12:23:01.454Z,9.67
2019-01-11T12:28:10.636Z,6.97
2019-01-11T12:33:17.859Z,10.93
2019-01-11T12:38:31.268Z,5.70
2019-01-11T12:43:40.295Z,8.80
2019-01-11T12:48:53.700Z,11.90
2019-01-11T12:54:00.959Z,8.70
2019-01-11T12:59:10.664Z,8.27
2019-01-11T13:04:21.415Z,8.20
2019-01-11T13:09:36.583Z,9.07
2019-01-11T13:14:46.849Z,6.20
2019-01-11T13:20:01.728Z,8.23
2019-01-11T13:25:14.701Z,7.63
2019-01-11T13:30:22.649Z,5.93
2019-01-11T13:35:35.399Z,7.03
2019-01-11T13:40:47.840Z,5.00
2019-01-11T13:46:01.959Z,6.77
2019-01-11T13:51:12.198Z,5.27
2019-01-11T13:56:22.873Z,6.47
2019-01-11T14:01:31.236Z,6.60
2019-01-11T14:06:46.754Z,8.57
2019-01-11T14:11:55.852Z,8.47
2019-01-11T14:17:08.358Z,10.23
2019-01-11T14:22:20.834Z,10.30
2019-01-11T14:27:30.595Z,11.97
2019-01-11T14:32:40.497Z,13.33
2019-01-11T14:37:50.496Z,9.37
2019-01-11T14:43:01.165Z,14.60
2019-01-11T14:48:12.769Z,9.03
2019-01-11T14:53:26.484Z,13.50
2019-01-11T14:58:36.509Z,9.17
2019-01-11T15:03:44.434Z,11.10
2019-01-11T15:08:59.528Z,13.93
2019-01-11T15:14:09.185Z,14.53
2019-01-11T15:19:19.483Z,11.53
2019-01-11T15:24:30.388Z,13.60
2019-01-11T15:29:39.463Z,11.23
2019-01-11T15:34:47.215Z,11.67
2019-01-11T15:39:58.030Z,17.20
2019-01-11T15:45:08.037Z,9.63
2019-01-11T15:50:19.043Z,11.90
2019-01-11T15:55:27.903Z,13.37
2019-01-11T16:00:41.059Z,13.33
2019-01-11T16:05:50.037Z,6.93
2019-01-11T16:11:40.512Z,6.60
2019-01-11T16:17:05.599Z,6.77
2019-01-11T16:22:13.746Z,5.60
2019-01-11T16:27:21.240Z,6.10
2019-01-11T16:32:30.076Z,6.17
2019-01-11T16:37:40.270Z,6.97
2019-01-11T16:42:51.137Z,8.50
2019-01-11T16:48:06.256Z,9.27
2019-01-11T16:53:17.765Z,6.87
2019-01-11T16:58:27.583Z,6.63
2019-01-11T17:03:37.376Z,10.73
2019-01-11T17:08:49.920Z,16.60
2019-01-11T17:13:55.876Z,11.93
2019-01-11T17:19:05.022Z,9.53
2019-01-11T17:24:18.658Z,9.90
2019-01-11T17:29:27.589Z,15.07
2019-01-11T17:34:37.595Z,9.47
2019-01-11T17:39:47.320Z,10.27
2019-01-11T17:44:58.006Z,10.43
2019-01-11T17:50:09.569Z,9.20
2019-01-11T17:55:20.580Z,9.93
2019-01-11T18:00:35.780Z,11.23
2019-01-11T18:05:48.245Z,15.13
2019-01-11T18:11:00.705Z,12.07
2019-01-11T18:16:12.435Z,9.53
2019-01-11T18:21:22.433Z,8.73
2019-01-11T18:26:30.685Z,11.57
2019-01-11T18:31:39.049Z,10.03
2019-01-11T18:36:48.766Z,7.63
2019-01-11T18:41:58.851Z,11.73
2019-01-11T18:47:12.726Z,12.73
2019-01-11T18:52:25.606Z,6.37
2019-01-11T18:57:34.140Z,9.03
2019-01-11T19:02:46.625Z,6.43
2019-01-11T19:07:55.816Z,7.47
2019-01-11T19:13:04.193Z,7.33
2019-01-11T19:18:13.137Z,8.50
2019-01-11T19:23:20.823Z,5.40
2019-01-11T19:28:32.030Z,8.03
2019-01-11T19:33:44.208Z,9.47
2019-01-11T19:38:55.393Z,11.03
2019-01-11T19:44:03.065Z,18.20
2019-01-11T19:49:12.806Z,10.87
2019-01-11T19:54:24.589Z,9.70
2019-01-11T19:59:36.231Z,12.63
2019-01-11T20:04:45.404Z,7.20
2019-01-11T20:09:54.723Z,9.90
2019-01-11T20:15:05.488Z,12.33
2019-01-11T20:20:17.431Z,14.13
2019-01-11T20:25:27.975Z,14.25
2019-01-11T20:30:36.399Z,16.13
2019-01-11T20:35:45.115Z,11.30
2019-01-11T20:40:52.833Z,10.67
2019-01-11T20:46:06.536Z,10.80
2019-01-11T20:51:23.214Z,10.83
2019-01-11T20:56:35.694Z,11.20
2019-01-11T21:01:43.221Z,11.40
2019-01-11T21:06:54.855Z,13.30
2019-01-11T21:12:06.533Z,15.70
2019-01-11T21:17:18.370Z,9.53
2019-01-11T21:22:30.021Z,13.10
2019-01-11T21:27:42.725Z,11.93
2019-01-11T21:32:53.415Z,13.03
2019-01-11T21:38:05.455Z,10.47
2019-01-11T21:43:13.942Z,10.17
2019-01-11T21:48:22.596Z,6.70
2019-01-11T21:53:31.033Z,12.43
2019-01-11T21:58:40.870Z,12.43
2019-01-11T22:03:49.756Z,11.93
2019-01-11T22:09:02.250Z,12.77
2019-01-11T22:14:12.601Z,12.77
2019-01-11T22:19:23.873Z,12.47
2019-01-11T22:24:34.538Z,10.43
2019-01-11T22:29:46.085Z,15.67
2019-01-11T22:34:52.491Z,12.70
2019-01-11T22:40:02.311Z,16.47
2019-01-11T22:45:15.816Z,13.37
2019-01-11T22:50:27.391Z,12.40
2019-01-11T22:55:35.440Z,12.37
2019-01-11T23:01:04.260Z,9.03
2019-01-11T23:06:19.080Z,10.30
2019-01-11T23:11:38.823Z,9.60
2019-01-11T23:17:29.231Z,8.77
2019-01-11T23:22:37.498Z,6.83
2019-01-11T23:27:46.484Z,9.63
2019-01-11T23:32:55.074Z,6.37
2019-01-11T23:38:06.069Z,9.20
2019-01-11T23:43:13.287Z,8.80
2019-01-11T23:48:23.908Z,10.75
2019-01-11T23:53:36.428Z,8.47
2019-01-11T23:58:48.328Z,10.27
